Time;durP1;ratioP1;P1;durP2;ratioP2;P2;SDS_P1;SDS_P2;PMS_P1;PMS_P2;Temp;Humidity;BMP_temperature;BMP_pressure;BME280_temperature;BME280_humidity;BME280_pressure;Samples;Min_cycle;Max_cycle;Signal;HPM_P1;HPM_P2
2023/03/26 00:00:22;;;;;;;;;;;;;;;11.04;100.00;97297.13;5081675;28;19980;-67
2023/03/26 00:02:48;;;;;;;;;;;;;;;11.07;100.00;97291.22;5084544;28;19964;-68
2023/03/26 00:05:14;;;;;;;;;;;;;;;10.99;100.00;97284.59;5084532;28;20019;-68
2023/03/26 00:07:41;;;;;;;;;;;;;;;10.90;100.00;97296.16;5072879;28;19959;-68
2023/03/26 00:10:08;;;;;;;;;;;;;;;10.88;100.00;97298.31;5081068;28;19929;-69
2023/03/26 00:12:34;;;;;;;;;;;;;;;10.86;100.00;97287.13;5083473;28;20572;-68
2023/03/26 00:15:02;;;;;;;;;;;;;;;10.86;100.00;97301.28;5084050;28;19920;-68
2023/03/26 00:17:28;;;;;;;;;;;;;;;10.73;100.00;97308.03;5081769;28;19962;-67
2023/03/26 00:19:55;;;;;;;;;;;;;;;10.80;100.00;97316.50;5080624;28;19992;-68
2023/03/26 00:22:22;;;;;;;;;;;;;;;10.65;100.00;97313.16;5081482;28;19992;-68
2023/03/26 00:24:50;;;;;;;;;;;;;;;10.88;100.00;97317.81;5082683;28;19924;-69
2023/03/26 00:27:16;;;;;;;;;;;;;;;10.95;100.00;97322.84;5083690;28;19935;-68
2023/03/26 00:29:42;;;;;;;;;;;;;;;11.00;100.00;97323.59;5080352;28;19925;-68
2023/03/26 00:32:10;;;;;;;;;;;;;;;11.04;100.00;97326.50;5080605;28;19935;-70
2023/03/26 00:34:40;;;;;;;;;;;;;;;11.03;100.00;97328.38;5083591;28;19966;-69
2023/03/26 00:37:07;;;;;;;;;;;;;;;10.99;100.00;97321.19;5083984;28;19925;-68
2023/03/26 00:39:36;;;;;;;;;;;;;;;11.05;100.00;97322.75;5081377;28;19935;-68
2023/03/26 00:42:06;;;;;;;;;;;;;;;11.02;100.00;97324.09;5080187;28;19971;-69
2023/03/26 00:44:32;;;;;;;;;;;;;;;10.79;100.00;97320.28;5082409;28;20047;-68
2023/03/26 00:46:59;;;;;;;;;;;;;;;10.82;100.00;97316.25;5083592;28;19942;-68
2023/03/26 00:49:29;;;;;;;;;;;;;;;10.95;100.00;97330.84;5082103;28;19960;-68
2023/03/26 00:51:55;;;;;;;;;;;;;;;10.98;100.00;97316.94;5080065;28;20004;-68
2023/03/26 00:54:22;;;;;;;;;;;;;;;10.90;100.00;97314.84;5080705;28;19925;-68
2023/03/26 00:56:48;;;;;;;;;;;;;;;10.80;100.00;97315.72;5083333;28;19972;-68
2023/03/26 00:59:15;;;;;;;;;;;;;;;10.94;100.00;97322.03;5083327;28;19924;-68
2023/03/26 01:01:43;;;;;;;;;;;;;;;10.96;100.00;97316.41;5076767;28;19925;-68
2023/03/26 01:04:29;;;;;;;;;;;;;;;11.04;100.00;97321.16;5079914;28;19927;-67
2023/03/26 01:06:57;;;;;;;;;;;;;;;11.07;100.00;97309.91;5073443;28;19931;-68
2023/03/26 01:09:26;;;;;;;;;;;;;;;11.01;100.00;97311.84;5080770;28;19925;-68
2023/03/26 01:11:52;;;;;;;;;;;;;;;10.99;100.00;97323.84;5083139;28;19935;-68
2023/03/26 01:14:20;;;;;;;;;;;;;;;11.05;100.00;97314.75;5082259;28;19988;-68
2023/03/26 01:16:50;;;;;;;;;;;;;;;11.00;100.00;97312.91;5078241;28;19924;-68
2023/03/26 01:19:21;;;;;;;;;;;;;;;11.12;100.00;97321.34;5079603;28;19959;-68
2023/03/26 01:21:49;;;;;;;;;;;;;;;11.15;100.00;97317.31;5083043;28;19932;-68
2023/03/26 01:24:17;;;;;;;;;;;;;;;11.08;100.00;97320.31;5083149;28;19966;-68
2023/03/26 01:26:54;;;;;;;;;;;;;;;10.95;100.00;97317.50;5078221;28;19932;-68
2023/03/26 01:29:25;;;;;;;;;;;;;;;10.92;100.00;97315.38;5079809;28;19935;-68
2023/03/26 01:31:57;;;;;;;;;;;;;;;10.77;100.00;97316.28;5076713;28;19928;-69
2023/03/26 01:34:29;;;;;;;;;;;;;;;10.98;100.00;97316.94;5082143;28;19928;-69
2023/03/26 01:37:01;;;;;;;;;;;;;;;11.01;100.00;97309.16;5079676;28;19956;-68
2023/03/26 01:39:31;;;;;;;;;;;;;;;10.98;100.00;97316.94;5080997;28;19952;-67
2023/03/26 01:42:02;;;;;;;;;;;;;;;11.01;100.00;97311.03;5083053;28;20361;-67
2023/03/26 01:44:31;;;;;;;;;;;;;;;10.95;100.00;97307.59;5079935;28;19925;-68
2023/03/26 01:46:58;;;;;;;;;;;;;;;11.00;100.00;97312.91;5079292;28;19979;-68
2023/03/26 01:49:27;;;;;;;;;;;;;;;10.89;100.00;97316.75;5080444;28;19940;-68
2023/03/26 01:51:55;;;;;;;;;;;;;;;10.95;100.00;97310.28;5082637;28;19993;-68
2023/03/26 01:54:22;;;;;;;;;;;;;;;10.93;100.00;97312.41;5081367;28;19924;-69
2023/03/26 01:56:56;;;;;;;;;;;;;;;10.92;100.00;97313.50;5079157;28;19935;-68
2023/03/26 01:59:39;;;;;;;;;;;;;;;10.82;100.00;97302.91;5078973;28;19935;-68
2023/03/26 02:02:08;;;;;;;;;;;;;;;10.97;100.00;97305.44;5072981;28;19920;-68
2023/03/26 02:04:38;;;;;;;;;;;;;;;11.07;100.00;97302.69;5079785;28;19928;-68
2023/03/26 02:07:06;;;;;;;;;;;;;;;11.13;100.00;97298.09;5078924;28;19921;-68
2023/03/26 02:09:36;;;;;;;;;;;;;;;11.17;100.00;97299.91;5081319;28;19925;-68
2023/03/26 02:12:06;;;;;;;;;;;;;;;11.16;100.00;97302.88;5082342;28;19924;-68
2023/03/26 02:14:33;;;;;;;;;;;;;;;11.21;100.00;97294.81;5079660;28;19924;-68
2023/03/26 02:16:59;;;;;;;;;;;;;;;11.25;100.00;97295.84;5077685;28;19936;-68
2023/03/26 02:19:26;;;;;;;;;;;;;;;11.13;100.00;97287.41;5079820;28;19921;-68
2023/03/26 02:21:58;;;;;;;;;;;;;;;11.12;100.00;97285.81;5082086;28;19932;-68
2023/03/26 02:24:25;;;;;;;;;;;;;;;11.09;100.00;97295.19;5080853;28;19992;-68
2023/03/26 02:26:51;;;;;;;;;;;;;;;11.11;100.00;97295.69;5077589;28;20016;-67
2023/03/26 02:29:20;;;;;;;;;;;;;;;10.97;100.00;97291.28;5078734;28;19961;-68
2023/03/26 02:31:47;;;;;;;;;;;;;;;10.83;100.00;97283.91;5075560;28;19932;-68
2023/03/26 02:34:13;;;;;;;;;;;;;;;10.85;100.00;97291.66;5081817;28;19947;-68
2023/03/26 02:36:41;;;;;;;;;;;;;;;10.77;100.00;97285.03;5078396;28;19932;-68
2023/03/26 02:39:08;;;;;;;;;;;;;;;10.91;100.00;97287.06;5078225;28;19937;-68
2023/03/26 02:41:34;;;;;;;;;;;;;;;10.95;100.00;97282.75;5080877;28;19960;-68
2023/03/26 02:44:00;;;;;;;;;;;;;;;10.96;100.00;97276.31;5081696;28;19925;-67
2023/03/26 02:46:28;;;;;;;;;;;;;;;10.92;100.00;97289.47;5080006;28;19959;-68
2023/03/26 02:48:54;;;;;;;;;;;;;;;10.94;100.00;97273.16;5078250;28;19964;-68
2023/03/26 02:51:21;;;;;;;;;;;;;;;10.90;100.00;97262.22;5079022;28;19924;-68
2023/03/26 02:53:47;;;;;;;;;;;;;;;10.96;100.00;97257.63;5080795;28;19924;-68
2023/03/26 02:56:14;;;;;;;;;;;;;;;10.79;100.00;97256.19;5081870;28;19925;-69
2023/03/26 02:58:40;;;;;;;;;;;;;;;10.92;100.00;97264.63;5078448;28;19929;-68
2023/03/26 03:01:07;;;;;;;;;;;;;;;10.93;100.00;97260.84;5080631;28;19925;-68
2023/03/26 03:03:35;;;;;;;;;;;;;;;11.00;100.00;97253.31;5079638;28;20015;-68
2023/03/26 03:06:01;;;;;;;;;;;;;;;11.02;100.00;97251.16;5078559;28;19941;-69
2023/03/26 03:08:28;;;;;;;;;;;;;;;10.81;100.00;97248.69;5080218;28;19953;-68
2023/03/26 03:10:58;;;;;;;;;;;;;;;10.99;100.00;97246.38;5082315;28;19992;-68
2023/03/26 03:13:24;;;;;;;;;;;;;;;10.79;100.00;97234.81;5080735;28;19960;-68
2023/03/26 03:15:51;;;;;;;;;;;;;;;10.95;100.00;97238.16;5078389;28;19936;-68
2023/03/26 03:18:17;;;;;;;;;;;;;;;11.00;100.00;97239.97;5078716;28;19996;-68
2023/03/26 03:20:45;;;;;;;;;;;;;;;10.80;100.00;97223.03;5082351;28;19947;-68
2023/03/26 03:23:12;;;;;;;;;;;;;;;10.89;100.00;97228.59;5081891;28;19928;-68
2023/03/26 03:25:39;;;;;;;;;;;;;;;10.97;100.00;97240.53;5078689;28;19956;-68
2023/03/26 03:28:06;;;;;;;;;;;;;;;10.71;100.00;97227.38;5078340;28;19925;-68
2023/03/26 03:30:32;;;;;;;;;;;;;;;10.76;100.00;97235.38;5080357;28;19932;-67
2023/03/26 03:33:01;;;;;;;;;;;;;;;10.74;100.00;97234.84;5081646;28;19935;-67
2023/03/26 03:35:28;;;;;;;;;;;;;;;10.79;100.00;97234.81;5079972;28;19924;-68
2023/03/26 03:37:56;;;;;;;;;;;;;;;10.73;100.00;97235.94;5078023;28;19925;-68
2023/03/26 03:40:22;;;;;;;;;;;;;;;10.84;100.00;97236.63;5078963;28;19928;-68
2023/03/26 03:42:48;;;;;;;;;;;;;;;10.89;100.00;97231.25;5081576;28;20011;-68
2023/03/26 03:45:15;;;;;;;;;;;;;;;10.77;100.00;97239.63;5081733;28;19931;-68
2023/03/26 03:47:41;;;;;;;;;;;;;;;10.85;100.00;97243.56;5085317;28;19925;-68
2023/03/26 03:50:08;;;;;;;;;;;;;;;10.93;100.00;97245.63;5078031;28;20020;-68
2023/03/26 03:52:35;;;;;;;;;;;;;;;10.77;100.00;97230.81;5083032;28;19936;-67
2023/03/26 03:55:02;;;;;;;;;;;;;;;10.77;100.00;97215.59;5084732;28;19971;-67
2023/03/26 03:57:30;;;;;;;;;;;;;;;10.72;100.00;97231.66;5082721;28;19960;-67
2023/03/26 03:59:57;;;;;;;;;;;;;;;10.80;100.00;97220.38;5081081;28;19960;-68
2023/03/26 04:02:28;;;;;;;;;;;;;;;10.82;100.00;97218.22;5082242;28;19925;-69
2023/03/26 04:04:56;;;;;;;;;;;;;;;10.64;100.00;97216.25;5084626;28;19929;-68
2023/03/26 04:07:22;;;;;;;;;;;;;;;10.84;100.00;97210.72;5083415;28;19925;-68
2023/03/26 04:09:49;;;;;;;;;;;;;;;10.67;100.00;97204.22;5080941;28;19952;-68
2023/03/26 04:12:16;;;;;;;;;;;;;;;10.79;100.00;97209.97;5080887;28;20004;-68
2023/03/26 04:14:43;;;;;;;;;;;;;;;10.80;100.00;97206.22;5072651;28;19932;-68
2023/03/26 04:17:12;;;;;;;;;;;;;;;10.76;100.00;97203.34;5080108;28;20124;-68
2023/03/26 04:19:39;;;;;;;;;;;;;;;10.75;100.00;97199.06;5082661;28;19924;-67
2023/03/26 04:22:05;;;;;;;;;;;;;;;10.65;100.00;97201.00;5084151;28;19924;-67
2023/03/26 04:24:32;;;;;;;;;;;;;;;10.63;100.00;97197.84;5080880;28;19960;-68
2023/03/26 04:27:00;;;;;;;;;;;;;;;10.53;100.00;97200.56;5079401;28;19935;-68
2023/03/26 04:29:29;;;;;;;;;;;;;;;10.48;100.00;97201.44;5097797;28;19925;-67
2023/03/26 04:32:05;;;;;;;;;;;;;;;10.53;100.00;97201.38;5081657;28;19925;-68
2023/03/26 04:34:32;;;;;;;;;;;;;;;10.46;100.00;97195.56;5082578;28;19932;-68
2023/03/26 04:37:00;;;;;;;;;;;;;;;10.46;100.00;97192.88;5083901;28;19963;-68
2023/03/26 04:39:28;;;;;;;;;;;;;;;10.47;100.00;97194.50;5082330;28;20015;-68
2023/03/26 04:41:54;;;;;;;;;;;;;;;10.45;100.00;97195.84;5080496;28;19929;-67
2023/03/26 04:44:21;;;;;;;;;;;;;;;10.49;100.00;97189.66;5080950;28;19944;-68
2023/03/26 04:46:49;;;;;;;;;;;;;;;10.44;100.00;97195.06;5083649;28;19932;-67
2023/03/26 04:49:15;;;;;;;;;;;;;;;10.53;100.00;97198.72;5083651;28;19921;-67
2023/03/26 04:51:43;;;;;;;;;;;;;;;10.44;100.00;97200.38;5071966;28;19928;-66
2023/03/26 04:54:11;;;;;;;;;;;;;;;10.56;100.00;97195.47;5079981;28;19955;-66
2023/03/26 04:56:42;;;;;;;;;;;;;;;10.64;100.00;97186.09;5082876;28;20405;-67
2023/03/26 04:59:09;;;;;;;;;;;;;;;10.70;100.00;97188.44;5083288;28;19936;-67
2023/03/26 05:01:36;;;;;;;;;;;;;;;10.66;100.00;97182.06;5080589;28;19951;-68
2023/03/26 05:04:04;;;;;;;;;;;;;;;10.62;100.00;97182.88;5080105;28;19924;-69
2023/03/26 05:06:33;;;;;;;;;;;;;;;10.70;100.00;97193.78;5081923;28;19958;-68
2023/03/26 05:08:59;;;;;;;;;;;;;;;10.63;100.00;97192.50;5082578;28;19928;-68
2023/03/26 05:11:25;;;;;;;;;;;;;;;10.47;100.00;97175.00;5080977;28;19992;-68
2023/03/26 05:13:52;;;;;;;;;;;;;;;10.46;100.00;97187.53;5079861;28;19929;-68
2023/03/26 05:16:18;;;;;;;;;;;;;;;10.63;100.00;97174.59;5080057;28;19964;-68
2023/03/26 05:18:45;;;;;;;;;;;;;;;10.63;100.00;97182.63;5083614;28;19932;-68
2023/03/26 05:21:13;;;;;;;;;;;;;;;10.62;100.00;97185.53;5083659;28;19934;-68
2023/03/26 05:23:39;;;;;;;;;;;;;;;10.61;100.00;97184.78;5080232;28;19965;-68
2023/03/26 05:26:07;;;;;;;;;;;;;;;10.53;100.00;97179.22;5079925;28;19956;-68
2023/03/26 05:28:33;;;;;;;;;;;;;;;10.55;100.00;97179.75;5082052;28;19925;-68
2023/03/26 05:31:00;;;;;;;;;;;;;;;10.51;100.00;97179.50;5083125;28;19942;-68
2023/03/26 05:33:27;;;;;;;;;;;;;;;10.46;100.00;97176.09;5081791;28;19935;-68
2023/03/26 05:35:59;;;;;;;;;;;;;;;10.44;100.00;97172.91;5079566;28;19925;-68
2023/03/26 05:38:28;;;;;;;;;;;;;;;10.38;100.00;97172.16;5079710;28;19924;-68
2023/03/26 05:40:57;;;;;;;;;;;;;;;10.56;100.00;97167.97;5083000;28;19934;-68
2023/03/26 05:43:24;;;;;;;;;;;;;;;10.53;100.00;97171.22;5081888;28;19974;-68
2023/03/26 05:45:50;;;;;;;;;;;;;;;10.63;100.00;97169.25;5079418;28;19953;-68
2023/03/26 05:48:17;;;;;;;;;;;;;;;10.00;100.00;97167.56;5079633;28;19984;-68
2023/03/26 05:50:43;;;;;;;;;;;;;;;9.69;100.00;97167.75;5083077;28;19959;-68
2023/03/26 05:53:10;;;;;;;;;;;;;;;9.55;100.00;97181.97;5083378;28;19951;-68
2023/03/26 05:55:39;;;;;;;;;;;;;;;9.63;100.00;97166.19;5079775;28;19940;-68
2023/03/26 05:58:05;;;;;;;;;;;;;;;9.40;100.00;97174.06;5079217;28;19935;-68
2023/03/26 06:00:32;;;;;;;;;;;;;;;9.67;100.00;97163.78;5077846;28;20476;-68
2023/03/26 06:02:59;;;;;;;;;;;;;;;9.87;100.00;97160.22;5077792;28;19925;-68
2023/03/26 06:05:25;;;;;;;;;;;;;;;9.70;100.00;97158.72;5080119;28;19935;-68
2023/03/26 06:07:52;;;;;;;;;;;;;;;9.58;100.00;97150.25;5082305;28;19987;-68
2023/03/26 06:10:19;;;;;;;;;;;;;;;9.98;100.00;97149.19;5082006;28;19932;-68
2023/03/26 06:12:48;;;;;;;;;;;;;;;10.13;100.00;97133.13;5078814;28;19920;-68
2023/03/26 06:15:14;;;;;;;;;;;;;;;10.07;100.00;97125.41;5078104;28;20012;-68
2023/03/26 06:17:41;;;;;;;;;;;;;;;9.90;100.00;97130.31;5070610;28;19944;-68
2023/03/26 06:20:08;;;;;;;;;;;;;;;9.69;100.00;97133.09;5078948;28;19933;-68
2023/03/26 06:22:35;;;;;;;;;;;;;;;9.84;100.00;97136.78;5080583;28;19980;-68
2023/03/26 06:25:01;;;;;;;;;;;;;;;10.28;100.00;97140.19;5082511;28;19928;-67
2023/03/26 06:27:28;;;;;;;;;;;;;;;10.07;100.00;97120.84;5080542;28;19924;-69
2023/03/26 06:29:55;;;;;;;;;;;;;;;9.58;100.00;97128.91;5078467;28;19924;-67
2023/03/26 06:32:22;;;;;;;;;;;;;;;9.42;100.00;97119.41;5079286;28;19965;-67
2023/03/26 06:34:48;;;;;;;;;;;;;;;9.22;100.00;97124.84;5082143;28;19924;-68
2023/03/26 06:37:15;;;;;;;;;;;;;;;9.25;100.00;97116.31;5082107;28;19920;-68
2023/03/26 06:39:41;;;;;;;;;;;;;;;9.18;100.00;97113.13;5070272;28;19924;-66
2023/03/26 06:42:08;;;;;;;;;;;;;;;9.00;100.00;97114.53;5078394;28;19929;-67
2023/03/26 06:44:34;;;;;;;;;;;;;;;8.98;100.00;97115.84;5080871;28;19925;-67
2023/03/26 06:47:02;;;;;;;;;;;;;;;8.94;100.00;97114.81;5081753;28;19980;-68
2023/03/26 06:49:28;;;;;;;;;;;;;;;8.77;100.00;97109.81;5079902;28;19936;-68
2023/03/26 06:51:56;;;;;;;;;;;;;;;8.89;100.00;97106.84;5078202;28;19929;-68
2023/03/26 06:54:22;;;;;;;;;;;;;;;8.95;100.00;97108.41;5079198;28;19996;-67
2023/03/26 06:56:49;;;;;;;;;;;;;;;8.97;100.00;97106.28;5080641;28;19975;-67
2023/03/26 06:59:15;;;;;;;;;;;;;;;8.81;100.00;97102.88;5082139;28;19948;-68
2023/03/26 07:01:41;;;;;;;;;;;;;;;8.86;100.00;97115.38;5081366;28;19932;-67
2023/03/26 07:04:09;;;;;;;;;;;;;;;9.01;100.00;97102.78;5077410;28;19987;-67
2023/03/26 07:06:36;;;;;;;;;;;;;;;8.85;100.00;97098.59;5080120;28;19925;-67
2023/03/26 07:09:02;;;;;;;;;;;;;;;8.74;100.00;97098.91;5081958;28;19952;-67
2023/03/26 07:11:28;;;;;;;;;;;;;;;9.00;100.00;97097.75;5080333;28;19924;-68
2023/03/26 07:13:56;;;;;;;;;;;;;;;9.16;100.00;97080.63;5079472;28;19920;-68
2023/03/26 07:16:22;;;;;;;;;;;;;;;9.05;100.00;97089.75;5078334;28;19984;-68
2023/03/26 07:18:48;;;;;;;;;;;;;;;9.03;100.00;97089.22;5082480;28;19958;-68
2023/03/26 07:21:18;;;;;;;;;;;;;;;8.87;100.00;97087.69;5085127;28;19956;-68
2023/03/26 07:23:45;;;;;;;;;;;;;;;8.94;100.00;97093.53;5073416;28;19925;-68
2023/03/26 07:26:19;;;;;;;;;;;;;;;9.12;100.00;97075.06;5084761;28;20074;-68
2023/03/26 07:28:47;;;;;;;;;;;;;;;8.96;100.00;97078.06;5078038;28;19947;-67
2023/03/26 07:31:20;;;;;;;;;;;;;;;8.84;100.00;97066.94;5085395;28;19924;-67
2023/03/26 07:33:51;;;;;;;;;;;;;;;8.86;100.00;97062.13;5082615;28;19963;-67
2023/03/26 07:36:21;;;;;;;;;;;;;;;8.86;100.00;97062.13;5082644;28;19924;-67
2023/03/26 07:38:53;;;;;;;;;;;;;;;8.83;100.00;97066.13;5085950;28;19935;-67
2023/03/26 07:41:25;;;;;;;;;;;;;;;8.93;100.00;97075.94;5086574;28;19921;-68
2023/03/26 07:44:20;;;;;;;;;;;;;;;9.07;100.00;97052.97;5082217;28;19932;-68
2023/03/26 07:46:46;;;;;;;;;;;;;;;8.97;100.00;97045.03;5074741;28;19920;-68
2023/03/26 07:49:13;;;;;;;;;;;;;;;8.99;100.00;97045.56;5082158;28;19932;-67
2023/03/26 07:51:42;;;;;;;;;;;;;;;8.85;100.00;97045.34;5085765;28;19924;-68
2023/03/26 07:54:10;;;;;;;;;;;;;;;8.76;100.00;97056.84;5085963;28;19950;-68
2023/03/26 07:56:38;;;;;;;;;;;;;;;8.80;100.00;97055.22;5082924;28;20799;-67
2023/03/26 07:59:10;;;;;;;;;;;;;;;8.90;100.00;97045.34;5081791;28;19925;-68
2023/03/26 08:01:43;;;;;;;;;;;;;;;9.04;100.00;97049.00;5084637;28;19929;-67
2023/03/26 08:04:37;;;;;;;;;;;;;;;9.06;100.00;97035.41;5081534;28;19921;-68
2023/03/26 08:07:08;;;;;;;;;;;;;;;8.87;100.00;97026.44;5040726;28;19950;-67
2023/03/26 08:09:37;;;;;;;;;;;;;;;8.96;100.00;97030.94;5083919;28;19951;-67
2023/03/26 08:12:07;;;;;;;;;;;;;;;9.18;100.00;97023.38;5085153;28;19936;-68
2023/03/26 08:14:40;;;;;;;;;;;;;;;9.17;100.00;97011.09;5082083;28;19925;-68
2023/03/26 08:17:10;;;;;;;;;;;;;;;9.35;100.00;97007.00;5081331;28;20014;-68
2023/03/26 08:19:43;;;;;;;;;;;;;;;9.31;100.00;97010.50;5084179;28;20000;-68
2023/03/26 08:22:15;;;;;;;;;;;;;;;9.18;100.00;97002.06;5084495;28;19931;-67
2023/03/26 08:24:47;;;;;;;;;;;;;;;9.15;100.00;96999.13;5072905;28;19931;-67
2023/03/26 08:27:20;;;;;;;;;;;;;;;9.03;100.00;96993.34;5080885;28;19936;-67
2023/03/26 08:29:50;;;;;;;;;;;;;;;9.07;100.00;96994.38;5073224;28;19931;-68
2023/03/26 08:32:18;;;;;;;;;;;;;;;9.26;100.00;96990.00;5080870;28;20028;-68
2023/03/26 08:34:44;;;;;;;;;;;;;;;9.31;100.00;96979.31;5084235;28;19971;-68
2023/03/26 08:37:12;;;;;;;;;;;;;;;9.72;100.00;96975.25;5083865;28;19931;-68
2023/03/26 08:39:40;;;;;;;;;;;;;;;9.78;100.00;96973.34;5080938;28;19924;-68
2023/03/26 08:42:28;;;;;;;;;;;;;;;9.54;100.00;96969.81;5080598;28;19960;-68
2023/03/26 08:45:06;;;;;;;;;;;;;;;9.40;100.00;96972.34;5046684;28;19986;-68
2023/03/26 08:47:51;;;;;;;;;;;;;;;9.43;100.00;96971.78;5082659;28;20380;-69
2023/03/26 08:50:28;;;;;;;;;;;;;;;9.44;100.00;96969.91;5083637;28;19928;-68
2023/03/26 08:53:07;;;;;;;;;;;;;;;9.31;100.00;96960.69;5080175;28;19935;-68
2023/03/26 08:55:39;;;;;;;;;;;;;;;9.33;100.00;96960.38;5082624;28;19929;-68
2023/03/26 08:58:33;;;;;;;;;;;;;;;9.42;100.00;96966.72;5083773;28;19958;-68
2023/03/26 09:01:23;;;;;;;;;;;;;;;9.65;100.00;96956.16;5074899;28;19946;-68
2023/03/26 09:03:58;;;;;;;;;;;;;;;9.59;100.00;96943.91;5034598;28;20052;-68
2023/03/26 09:06:36;;;;;;;;;;;;;;;9.60;100.00;96942.84;5081296;28;19929;-68
2023/03/26 09:09:23;;;;;;;;;;;;;;;9.74;100.00;96922.47;5083546;28;19992;-67
2023/03/26 09:12:13;;;;;;;;;;;;;;;9.68;100.00;96910.28;5072994;28;19995;-68
2023/03/26 09:14:51;;;;;;;;;;;;;;;9.96;100.00;96910.53;5082891;28;19931;-69
2023/03/26 09:17:35;;;;;;;;;;;;;;;9.90;100.00;96907.13;5083170;28;20011;-68
2023/03/26 09:20:27;;;;;;;;;;;;;;;9.72;100.00;96903.28;5079966;28;19952;-68
2023/03/26 09:23:06;;;;;;;;;;;;;;;9.67;100.00;96898.00;5073244;28;20019;-68
2023/03/26 09:25:48;;;;;;;;;;;;;;;9.48;100.00;96896.31;5082250;28;19924;-68
2023/03/26 09:28:27;;;;;;;;;;;;;;;9.47;100.00;96892.84;5082361;28;19928;-68
2023/03/26 09:31:18;;;;;;;;;;;;;;;9.42;100.00;96882.25;5072970;28;19959;-67
2023/03/26 09:33:58;;;;;;;;;;;;;;;9.38;100.00;96880.41;5061503;28;19936;-67
2023/03/26 09:36:45;;;;;;;;;;;;;;;9.39;100.00;96866.03;5080794;28;19952;-68
2023/03/26 09:39:16;;;;;;;;;;;;;;;9.42;100.00;96868.13;5079437;28;20016;-68
2023/03/26 09:41:49;;;;;;;;;;;;;;;9.37;100.00;96866.31;5071558;28;19983;-68
2023/03/26 09:44:32;;;;;;;;;;;;;;;9.42;100.00;96860.13;5079544;28;19932;-69
2023/03/26 09:47:11;;;;;;;;;;;;;;;9.45;100.00;96854.25;5073539;28;19936;-69
2023/03/26 09:49:46;;;;;;;;;;;;;;;9.40;100.00;96857.75;5080552;28;19928;-69
2023/03/26 09:52:20;;;;;;;;;;;;;;;9.34;100.00;96845.56;5082631;28;19959;-68
2023/03/26 09:55:02;;;;;;;;;;;;;;;9.31;100.00;96830.13;5071686;28;19960;-69
2023/03/26 09:57:42;;;;;;;;;;;;;;;9.38;100.00;96829.78;5080745;28;20258;-69
2023/03/26 10:00:18;;;;;;;;;;;;;;;9.46;100.00;96831.84;5078106;28;19928;-69
2023/03/26 10:02:50;;;;;;;;;;;;;;;9.48;100.00;96833.16;5071093;28;20004;-68
2023/03/26 10:05:28;;;;;;;;;;;;;;;9.46;100.00;96832.66;5078938;28;19992;-68
2023/03/26 10:08:02;;;;;;;;;;;;;;;9.46;100.00;96837.97;5072538;28;19921;-69
2023/03/26 10:10:33;;;;;;;;;;;;;;;9.61;100.00;96842.34;5080633;28;19997;-69
2023/03/26 10:13:04;;;;;;;;;;;;;;;9.58;100.00;96835.72;5082578;28;19920;-69
2023/03/26 10:15:34;;;;;;;;;;;;;;;9.54;100.00;96837.34;5080117;28;19932;-67
2023/03/26 10:18:07;;;;;;;;;;;;;;;9.58;100.00;96833.06;5079120;28;19975;-67
2023/03/26 10:20:46;;;;;;;;;;;;;;;9.73;100.00;96822.22;5081443;28;19925;-68
2023/03/26 10:23:22;;;;;;;;;;;;;;;9.78;100.00;96821.38;5082616;28;19964;-68
2023/03/26 10:25:55;;;;;;;;;;;;;;;9.73;100.00;96827.56;5071369;28;19956;-67
2023/03/26 10:28:31;;;;;;;;;;;;;;;9.77;100.00;96817.94;5079173;28;19952;-67
2023/03/26 10:31:05;;;;;;;;;;;;;;;9.99;100.00;96813.94;5082732;28;19974;-68
2023/03/26 10:33:39;;;;;;;;;;;;;;;9.96;100.00;96817.19;5080112;28;19970;-69
2023/03/26 10:36:20;;;;;;;;;;;;;;;10.23;100.00;96818.19;5077596;28;19951;-68
2023/03/26 10:38:57;;;;;;;;;;;;;;;10.35;100.00;96823.09;5071024;28;19924;-69
2023/03/26 10:41:29;;;;;;;;;;;;;;;10.41;100.00;96823.81;5078851;28;19968;-67
2023/03/26 10:44:04;;;;;;;;;;;;;;;10.44;100.00;96810.69;5082333;28;19933;-68
2023/03/26 10:46:45;;;;;;;;;;;;;;;10.47;100.00;96812.78;5080368;28;19958;-68
2023/03/26 10:49:27;;;;;;;;;;;;;;;10.58;100.00;96805.44;5076412;28;19985;-69
2023/03/26 10:51:58;;;;;;;;;;;;;;;10.61;100.00;96819.00;5072324;28;19993;-68
2023/03/26 10:54:35;;;;;;;;;;;;;;;10.48;100.00;96822.41;5079863;28;19991;-68
2023/03/26 10:57:04;;;;;;;;;;;;;;;10.43;100.00;96829.69;5081293;28;19964;-67
2023/03/26 10:59:31;;;;;;;;;;;;;;;10.44;100.00;96823.25;5080390;28;19963;-68
2023/03/26 11:02:04;;;;;;;;;;;;;;;10.39;100.00;96829.47;5082439;28;19929;-68
2023/03/26 11:04:36;;;;;;;;;;;;;;;10.41;100.00;96823.81;5084584;28;19925;-67
2023/03/26 11:07:09;;;;;;;;;;;;;;;10.43;100.00;96830.44;5086191;28;19960;-67
2023/03/26 11:09:40;;;;;;;;;;;;;;;10.40;100.00;96832.94;5083525;28;19936;-68
2023/03/26 11:12:09;;;;;;;;;;;;;;;10.33;100.00;96825.28;5082718;28;19968;-68
2023/03/26 11:14:39;;;;;;;;;;;;;;;10.31;100.00;96827.41;5084844;28;19971;-68
2023/03/26 11:17:14;;;;;;;;;;;;;;;10.40;100.00;96835.59;5086110;28;19939;-68
2023/03/26 11:19:45;;;;;;;;;;;;;;;10.54;100.00;96833.78;5082502;28;19960;-68
2023/03/26 11:22:17;;;;;;;;;;;;;;;10.49;100.00;96829.31;5082236;28;19960;-68
2023/03/26 11:24:55;;;;;;;;;;;;;;;10.54;100.00;96829.25;5074268;28;19943;-68
2023/03/26 11:27:26;;;;;;;;;;;;;;;10.56;100.00;96828.94;5082727;28;19925;-68
2023/03/26 11:29:55;;;;;;;;;;;;;;;10.58;100.00;96830.28;5083396;28;20363;-68
2023/03/26 11:32:23;;;;;;;;;;;;;;;10.57;100.00;96825.19;5082692;28;19988;-69
2023/03/26 11:34:57;;;;;;;;;;;;;;;10.39;100.00;96823.31;5085335;28;19924;-68
2023/03/26 11:37:31;;;;;;;;;;;;;;;10.50;100.00;96830.91;5084386;28;19925;-68
2023/03/26 11:39:59;;;;;;;;;;;;;;;10.44;100.00;96823.25;5081900;28;19925;-68
2023/03/26 11:42:25;;;;;;;;;;;;;;;10.36;100.00;96829.25;5082941;28;19925;-69
2023/03/26 11:44:54;;;;;;;;;;;;;;;10.39;100.00;96818.00;5085299;28;19929;-68
2023/03/26 11:47:23;;;;;;;;;;;;;;;10.39;100.00;96818.00;5085004;28;19975;-67
2023/03/26 11:49:52;;;;;;;;;;;;;;;10.49;100.00;96815.94;5081843;28;19996;-68
2023/03/26 11:52:18;;;;;;;;;;;;;;;10.52;100.00;96809.28;5081794;28;20103;-68
2023/03/26 11:54:47;;;;;;;;;;;;;;;10.57;100.00;96806.50;5085572;28;19967;-67
2023/03/26 11:57:17;;;;;;;;;;;;;;;10.50;100.00;96808.75;5085520;28;20345;-68
2023/03/26 11:59:47;;;;;;;;;;;;;;;10.51;100.00;96800.47;5073833;28;19987;-68
2023/03/26 12:02:17;;;;;;;;;;;;;;;10.49;100.00;96802.59;5081954;28;19978;-68
2023/03/26 12:04:44;;;;;;;;;;;;;;;10.58;100.00;96795.56;5073722;28;19951;-68
2023/03/26 12:07:15;;;;;;;;;;;;;;;10.54;100.00;96786.53;5081813;28;19925;-68
2023/03/26 12:09:50;;;;;;;;;;;;;;;10.75;100.00;96779.00;5084754;28;19925;-68
2023/03/26 12:12:17;;;;;;;;;;;;;;;10.75;100.00;96766.44;5084517;28;20150;-68
2023/03/26 12:14:44;;;;;;;;;;;;;;;10.74;100.00;96764.84;5073234;28;19925;-68
2023/03/26 12:17:13;;;;;;;;;;;;;;;10.76;100.00;96752.03;5081442;28;19932;-68
2023/03/26 12:19:40;;;;;;;;;;;;;;;10.49;100.00;96727.88;5084452;28;19924;-67
2023/03/26 12:22:28;;;;;;;;;;;;;;;10.34;100.00;96728.09;5085125;28;19935;-68
2023/03/26 12:25:02;;;;;;;;;;;;;;;10.55;100.00;96724.03;5074646;28;19929;-68
2023/03/26 12:27:29;;;;;;;;;;;;;;;10.74;100.00;96727.47;5082673;28;19957;-68
2023/03/26 12:29:59;;;;;;;;;;;;;;;10.73;100.00;96720.56;5082008;28;19991;-68
2023/03/26 12:32:31;;;;;;;;;;;;;;;10.81;100.00;96711.06;5081955;28;19925;-68
2023/03/26 12:34:58;;;;;;;;;;;;;;;10.64;100.00;96718.84;5084496;28;20401;-68
2023/03/26 12:37:35;;;;;;;;;;;;;;;10.51;100.00;96715.06;5083209;28;19925;-68
2023/03/26 12:40:26;;;;;;;;;;;;;;;10.48;100.00;96715.63;5081025;28;19971;-68
2023/03/26 12:42:53;;;;;;;;;;;;;;;10.62;100.00;96721.00;5075957;28;19911;-68
2023/03/26 12:45:20;;;;;;;;;;;;;;;10.74;100.00;96711.44;5086357;28;19975;-68
2023/03/26 12:47:47;;;;;;;;;;;;;;;10.74;100.00;96707.97;5089800;28;19935;-68
2023/03/26 12:50:14;;;;;;;;;;;;;;;10.58;100.00;96715.47;5089438;28;19909;-70
2023/03/26 12:52:59;;;;;;;;;;;;;;;10.66;100.00;96711.34;5086199;28;20051;-69
2023/03/26 12:55:43;;;;;;;;;;;;;;;10.81;100.00;96697.72;5083484;28;19928;-68